sensor_id;sensor_type;location;lat;lon;timestamp;P1;durP1;ratioP1;P2;durP2;ratioP2
32200;SDS011;18701;45.588;5.288;2023-12-14T00:01:19;3.55;;;1.92;;
32200;SDS011;18701;45.588;5.288;2023-12-14T00:03:45;3.53;;;2.47;;
32200;SDS011;18701;45.588;5.288;2023-12-14T00:06:11;3.50;;;2.60;;
32200;SDS011;18701;45.588;5.288;2023-12-14T00:08:37;5.03;;;1.75;;
32200;SDS011;18701;45.588;5.288;2023-12-14T00:11:09;2.45;;;1.77;;
32200;SDS011;18701;45.588;5.288;2023-12-14T00:13:36;2.63;;;1.85;;
32200;SDS011;18701;45.588;5.288;2023-12-14T00:16:03;3.33;;;1.80;;
32200;SDS011;18701;45.588;5.288;2023-12-14T00:18:29;4.13;;;2.40;;
32200;SDS011;18701;45.588;5.288;2023-12-14T00:20:55;5.20;;;2.28;;
32200;SDS011;18701;45.588;5.288;2023-12-14T00:23:21;3.63;;;1.90;;
32200;SDS011;18701;45.588;5.288;2023-12-14T00:25:47;2.28;;;1.30;;
32200;SDS011;18701;45.588;5.288;2023-12-14T00:28:12;5.72;;;2.00;;
32200;SDS011;18701;45.588;5.288;2023-12-14T00:30:38;5.05;;;2.28;;
32200;SDS011;18701;45.588;5.288;2023-12-14T00:33:04;5.35;;;1.50;;
32200;SDS011;18701;45.588;5.288;2023-12-14T00:35:30;3.53;;;1.00;;
32200;SDS011;18701;45.588;5.288;2023-12-14T00:37:55;4.60;;;1.70;;
32200;SDS011;18701;45.588;5.288;2023-12-14T00:40:21;2.67;;;1.25;;
32200;SDS011;18701;45.588;5.288;2023-12-14T00:42:47;3.55;;;1.05;;
32200;SDS011;18701;45.588;5.288;2023-12-14T00:45:13;2.65;;;1.20;;
32200;SDS011;18701;45.588;5.288;2023-12-14T00:47:38;5.22;;;1.55;;
32200;SDS011;18701;45.588;5.288;2023-12-14T00:50:04;4.55;;;1.52;;
32200;SDS011;18701;45.588;5.288;2023-12-14T00:52:30;4.13;;;1.48;;
32200;SDS011;18701;45.588;5.288;2023-12-14T00:54:55;3.00;;;1.40;;
32200;SDS011;18701;45.588;5.288;2023-12-14T00:57:21;4.65;;;0.93;;
32200;SDS011;18701;45.588;5.288;2023-12-14T00:59:47;4.80;;;1.08;;
32200;SDS011;18701;45.588;5.288;2023-12-14T01:02:12;5.40;;;0.98;;
32200;SDS011;18701;45.588;5.288;2023-12-14T01:04:38;3.58;;;1.25;;
32200;SDS011;18701;45.588;5.288;2023-12-14T01:07:04;6.10;;;1.00;;
32200;SDS011;18701;45.588;5.288;2023-12-14T01:09:29;3.78;;;1.20;;
32200;SDS011;18701;45.588;5.288;2023-12-14T01:11:55;3.92;;;1.30;;
32200;SDS011;18701;45.588;5.288;2023-12-14T01:14:21;2.72;;;0.90;;
32200;SDS011;18701;45.588;5.288;2023-12-14T01:16:46;4.57;;;1.45;;
32200;SDS011;18701;45.588;5.288;2023-12-14T01:19:12;2.88;;;1.30;;
32200;SDS011;18701;45.588;5.288;2023-12-14T01:21:38;1.85;;;0.88;;
32200;SDS011;18701;45.588;5.288;2023-12-14T01:24:03;3.97;;;0.90;;
32200;SDS011;18701;45.588;5.288;2023-12-14T01:26:29;2.65;;;0.68;;
32200;SDS011;18701;45.588;5.288;2023-12-14T01:28:55;2.58;;;0.63;;
32200;SDS011;18701;45.588;5.288;2023-12-14T01:31:21;4.88;;;0.80;;
32200;SDS011;18701;45.588;5.288;2023-12-14T01:33:49;3.38;;;0.65;;
32200;SDS011;18701;45.588;5.288;2023-12-14T01:36:22;3.42;;;0.60;;
32200;SDS011;18701;45.588;5.288;2023-12-14T01:38:49;2.13;;;0.38;;
32200;SDS011;18701;45.588;5.288;2023-12-14T01:41:15;2.55;;;0.40;;
32200;SDS011;18701;45.588;5.288;2023-12-14T01:43:41;2.60;;;0.35;;
32200;SDS011;18701;45.588;5.288;2023-12-14T01:46:06;1.38;;;0.43;;
32200;SDS011;18701;45.588;5.288;2023-12-14T01:48:32;1.92;;;0.73;;
32200;SDS011;18701;45.588;5.288;2023-12-14T01:50:58;5.30;;;0.65;;
32200;SDS011;18701;45.588;5.288;2023-12-14T01:53:23;2.08;;;0.60;;
32200;SDS011;18701;45.588;5.288;2023-12-14T01:55:49;3.00;;;0.60;;
32200;SDS011;18701;45.588;5.288;2023-12-14T01:58:14;4.97;;;0.75;;
32200;SDS011;18701;45.588;5.288;2023-12-14T02:00:49;2.83;;;0.60;;
32200;SDS011;18701;45.588;5.288;2023-12-14T02:03:18;1.35;;;0.70;;
32200;SDS011;18701;45.588;5.288;2023-12-14T02:05:44;1.80;;;0.63;;
32200;SDS011;18701;45.588;5.288;2023-12-14T02:08:10;2.65;;;1.20;;
32200;SDS011;18701;45.588;5.288;2023-12-14T02:10:35;1.83;;;0.90;;
32200;SDS011;18701;45.588;5.288;2023-12-14T02:13:01;2.78;;;0.90;;
32200;SDS011;18701;45.588;5.288;2023-12-14T02:15:28;2.47;;;1.05;;
32200;SDS011;18701;45.588;5.288;2023-12-14T02:17:53;5.75;;;1.10;;
32200;SDS011;18701;45.588;5.288;2023-12-14T02:20:19;3.70;;;1.60;;
32200;SDS011;18701;45.588;5.288;2023-12-14T02:22:48;3.95;;;1.40;;
32200;SDS011;18701;45.588;5.288;2023-12-14T02:25:15;5.50;;;1.27;;
32200;SDS011;18701;45.588;5.288;2023-12-14T02:27:41;4.00;;;1.15;;
32200;SDS011;18701;45.588;5.288;2023-12-14T02:30:07;1.95;;;1.10;;
32200;SDS011;18701;45.588;5.288;2023-12-14T02:32:33;5.43;;;1.42;;
32200;SDS011;18701;45.588;5.288;2023-12-14T02:34:59;2.83;;;1.20;;
32200;SDS011;18701;45.588;5.288;2023-12-14T02:37:25;4.65;;;1.55;;
32200;SDS011;18701;45.588;5.288;2023-12-14T02:39:50;4.15;;;1.67;;
32200;SDS011;18701;45.588;5.288;2023-12-14T02:42:16;5.47;;;1.50;;
32200;SDS011;18701;45.588;5.288;2023-12-14T02:44:41;5.68;;;1.80;;
32200;SDS011;18701;45.588;5.288;2023-12-14T02:47:07;3.08;;;1.83;;
32200;SDS011;18701;45.588;5.288;2023-12-14T02:49:33;2.50;;;1.60;;
32200;SDS011;18701;45.588;5.288;2023-12-14T02:51:58;5.03;;;1.50;;
32200;SDS011;18701;45.588;5.288;2023-12-14T02:54:24;4.90;;;1.92;;
32200;SDS011;18701;45.588;5.288;2023-12-14T02:56:50;3.53;;;1.90;;
32200;SDS011;18701;45.588;5.288;2023-12-14T02:59:15;6.68;;;1.98;;
32200;SDS011;18701;45.588;5.288;2023-12-14T03:01:41;4.80;;;1.98;;
32200;SDS011;18701;45.588;5.288;2023-12-14T03:04:07;2.65;;;1.63;;
32200;SDS011;18701;45.588;5.288;2023-12-14T03:06:33;5.13;;;1.60;;
32200;SDS011;18701;45.588;5.288;2023-12-14T03:08:58;6.30;;;1.85;;
32200;SDS011;18701;45.588;5.288;2023-12-14T03:11:25;3.60;;;1.75;;
32200;SDS011;18701;45.588;5.288;2023-12-14T03:13:50;2.65;;;1.65;;
32200;SDS011;18701;45.588;5.288;2023-12-14T03:16:18;2.80;;;1.50;;
32200;SDS011;18701;45.588;5.288;2023-12-14T03:18:44;2.92;;;1.50;;
32200;SDS011;18701;45.588;5.288;2023-12-14T03:21:09;3.13;;;1.45;;
32200;SDS011;18701;45.588;5.288;2023-12-14T03:23:35;4.25;;;1.58;;
32200;SDS011;18701;45.588;5.288;2023-12-14T03:26:01;3.33;;;1.25;;
32200;SDS011;18701;45.588;5.288;2023-12-14T03:28:27;1.35;;;0.98;;
32200;SDS011;18701;45.588;5.288;2023-12-14T03:30:53;1.92;;;1.05;;
32200;SDS011;18701;45.588;5.288;2023-12-14T03:33:18;2.67;;;1.30;;
32200;SDS011;18701;45.588;5.288;2023-12-14T03:35:44;7.20;;;1.42;;
32200;SDS011;18701;45.588;5.288;2023-12-14T03:38:12;2.95;;;1.73;;
32200;SDS011;18701;45.588;5.288;2023-12-14T03:40:38;3.42;;;1.30;;
32200;SDS011;18701;45.588;5.288;2023-12-14T03:43:04;6.60;;;2.00;;
32200;SDS011;18701;45.588;5.288;2023-12-14T03:45:30;5.13;;;1.85;;
32200;SDS011;18701;45.588;5.288;2023-12-14T03:47:55;5.18;;;1.77;;
32200;SDS011;18701;45.588;5.288;2023-12-14T03:50:21;5.03;;;2.00;;
32200;SDS011;18701;45.588;5.288;2023-12-14T03:52:47;3.75;;;1.42;;
32200;SDS011;18701;45.588;5.288;2023-12-14T03:55:13;4.40;;;1.67;;
32200;SDS011;18701;45.588;5.288;2023-12-14T03:57:40;2.15;;;1.30;;
32200;SDS011;18701;45.588;5.288;2023-12-14T04:00:07;2.55;;;1.23;;
32200;SDS011;18701;45.588;5.288;2023-12-14T04:02:36;5.85;;;1.08;;
32200;SDS011;18701;45.588;5.288;2023-12-14T04:05:02;5.30;;;1.00;;
32200;SDS011;18701;45.588;5.288;2023-12-14T04:07:28;1.85;;;0.95;;
32200;SDS011;18701;45.588;5.288;2023-12-14T04:09:54;2.70;;;0.88;;
32200;SDS011;18701;45.588;5.288;2023-12-14T04:12:19;1.35;;;0.82;;
32200;SDS011;18701;45.588;5.288;2023-12-14T04:14:45;1.45;;;0.90;;
32200;SDS011;18701;45.588;5.288;2023-12-14T04:17:11;3.05;;;0.85;;
32200;SDS011;18701;45.588;5.288;2023-12-14T04:19:40;1.77;;;0.70;;
32200;SDS011;18701;45.588;5.288;2023-12-14T04:22:06;1.73;;;0.60;;
32200;SDS011;18701;45.588;5.288;2023-12-14T04:24:32;2.95;;;0.75;;
32200;SDS011;18701;45.588;5.288;2023-12-14T04:26:58;1.88;;;0.85;;
32200;SDS011;18701;45.588;5.288;2023-12-14T04:29:25;2.05;;;0.55;;
32200;SDS011;18701;45.588;5.288;2023-12-14T04:31:50;1.67;;;0.70;;
32200;SDS011;18701;45.588;5.288;2023-12-14T04:34:18;2.03;;;1.00;;
32200;SDS011;18701;45.588;5.288;2023-12-14T04:36:45;2.35;;;0.90;;
32200;SDS011;18701;45.588;5.288;2023-12-14T04:39:11;1.42;;;0.60;;
32200;SDS011;18701;45.588;5.288;2023-12-14T04:41:36;1.70;;;0.68;;
32200;SDS011;18701;45.588;5.288;2023-12-14T04:44:02;0.90;;;0.50;;
32200;SDS011;18701;45.588;5.288;2023-12-14T04:46:28;1.45;;;0.50;;
32200;SDS011;18701;45.588;5.288;2023-12-14T04:48:54;0.80;;;0.50;;
32200;SDS011;18701;45.588;5.288;2023-12-14T04:51:20;3.08;;;0.60;;
32200;SDS011;18701;45.588;5.288;2023-12-14T04:53:46;1.10;;;0.60;;
32200;SDS011;18701;45.588;5.288;2023-12-14T04:56:12;1.20;;;0.65;;
32200;SDS011;18701;45.588;5.288;2023-12-14T04:58:38;1.77;;;0.55;;
32200;SDS011;18701;45.588;5.288;2023-12-14T05:01:04;1.52;;;0.90;;
32200;SDS011;18701;45.588;5.288;2023-12-14T05:03:30;1.58;;;0.80;;
32200;SDS011;18701;45.588;5.288;2023-12-14T05:05:56;3.67;;;0.80;;
32200;SDS011;18701;45.588;5.288;2023-12-14T05:08:22;2.40;;;0.60;;
32200;SDS011;18701;45.588;5.288;2023-12-14T05:10:47;3.72;;;1.17;;
32200;SDS011;18701;45.588;5.288;2023-12-14T05:13:13;1.60;;;0.40;;
32200;SDS011;18701;45.588;5.288;2023-12-14T05:15:38;1.08;;;0.50;;
32200;SDS011;18701;45.588;5.288;2023-12-14T05:18:04;2.00;;;0.57;;
32200;SDS011;18701;45.588;5.288;2023-12-14T05:20:30;0.73;;;0.50;;
32200;SDS011;18701;45.588;5.288;2023-12-14T05:22:55;2.85;;;0.45;;
32200;SDS011;18701;45.588;5.288;2023-12-14T05:25:21;4.60;;;0.70;;
32200;SDS011;18701;45.588;5.288;2023-12-14T05:27:47;2.30;;;0.60;;
32200;SDS011;18701;45.588;5.288;2023-12-14T05:30:12;2.78;;;0.60;;
32200;SDS011;18701;45.588;5.288;2023-12-14T05:32:38;1.00;;;0.60;;
32200;SDS011;18701;45.588;5.288;2023-12-14T05:35:04;1.85;;;0.60;;
32200;SDS011;18701;45.588;5.288;2023-12-14T05:37:30;1.10;;;0.45;;
32200;SDS011;18701;45.588;5.288;2023-12-14T05:39:55;2.35;;;0.50;;
32200;SDS011;18701;45.588;5.288;2023-12-14T05:42:21;1.10;;;0.60;;
32200;SDS011;18701;45.588;5.288;2023-12-14T05:44:47;1.38;;;0.45;;
32200;SDS011;18701;45.588;5.288;2023-12-14T05:47:13;1.30;;;0.50;;
32200;SDS011;18701;45.588;5.288;2023-12-14T05:49:42;4.38;;;0.52;;
32200;SDS011;18701;45.588;5.288;2023-12-14T05:52:09;2.40;;;0.80;;
32200;SDS011;18701;45.588;5.288;2023-12-14T05:54:38;3.97;;;0.63;;
32200;SDS011;18701;45.588;5.288;2023-12-14T05:57:06;1.15;;;0.50;;
32200;SDS011;18701;45.588;5.288;2023-12-14T05:59:32;1.02;;;0.57;;
32200;SDS011;18701;45.588;5.288;2023-12-14T06:01:58;3.08;;;0.68;;
32200;SDS011;18701;45.588;5.288;2023-12-14T06:04:24;4.57;;;0.60;;
32200;SDS011;18701;45.588;5.288;2023-12-14T06:06:51;1.05;;;0.60;;
32200;SDS011;18701;45.588;5.288;2023-12-14T06:09:16;1.20;;;0.70;;
32200;SDS011;18701;45.588;5.288;2023-12-14T06:11:44;2.97;;;0.60;;
32200;SDS011;18701;45.588;5.288;2023-12-14T06:14:10;2.20;;;0.63;;
32200;SDS011;18701;45.588;5.288;2023-12-14T06:16:35;1.40;;;0.70;;
32200;SDS011;18701;45.588;5.288;2023-12-14T06:19:01;2.03;;;0.80;;
32200;SDS011;18701;45.588;5.288;2023-12-14T06:21:26;1.90;;;1.00;;
32200;SDS011;18701;45.588;5.288;2023-12-14T06:23:54;2.00;;;0.95;;
32200;SDS011;18701;45.588;5.288;2023-12-14T06:26:24;1.75;;;0.80;;
32200;SDS011;18701;45.588;5.288;2023-12-14T06:28:49;3.72;;;1.15;;
32200;SDS011;18701;45.588;5.288;2023-12-14T06:31:15;1.52;;;1.00;;
32200;SDS011;18701;45.588;5.288;2023-12-14T06:33:42;3.40;;;1.58;;
32200;SDS011;18701;45.588;5.288;2023-12-14T06:36:08;2.75;;;1.30;;
32200;SDS011;18701;45.588;5.288;2023-12-14T06:38:34;2.05;;;1.48;;
32200;SDS011;18701;45.588;5.288;2023-12-14T06:41:00;2.38;;;1.88;;
32200;SDS011;18701;45.588;5.288;2023-12-14T06:43:27;4.00;;;1.85;;
32200;SDS011;18701;45.588;5.288;2023-12-14T06:45:52;1.95;;;1.58;;
32200;SDS011;18701;45.588;5.288;2023-12-14T06:48:18;5.30;;;2.17;;
32200;SDS011;18701;45.588;5.288;2023-12-14T06:50:45;2.72;;;2.05;;
32200;SDS011;18701;45.588;5.288;2023-12-14T06:53:10;4.45;;;2.40;;
32200;SDS011;18701;45.588;5.288;2023-12-14T06:55:36;5.55;;;2.60;;
32200;SDS011;18701;45.588;5.288;2023-12-14T06:58:02;2.75;;;1.90;;
32200;SDS011;18701;45.588;5.288;2023-12-14T07:00:28;2.70;;;1.95;;
32200;SDS011;18701;45.588;5.288;2023-12-14T07:02:54;4.28;;;2.50;;
32200;SDS011;18701;45.588;5.288;2023-12-14T07:05:20;5.32;;;2.08;;
32200;SDS011;18701;45.588;5.288;2023-12-14T07:07:46;4.50;;;2.20;;
32200;SDS011;18701;45.588;5.288;2023-12-14T07:10:11;4.32;;;1.98;;
32200;SDS011;18701;45.588;5.288;2023-12-14T07:12:37;2.63;;;2.20;;
32200;SDS011;18701;45.588;5.288;2023-12-14T07:15:03;8.25;;;2.35;;
32200;SDS011;18701;45.588;5.288;2023-12-14T07:17:30;4.00;;;2.00;;
32200;SDS011;18701;45.588;5.288;2023-12-14T07:19:55;7.47;;;1.85;;
32200;SDS011;18701;45.588;5.288;2023-12-14T07:22:21;12.25;;;2.53;;
32200;SDS011;18701;45.588;5.288;2023-12-14T07:24:47;2.53;;;1.60;;
32200;SDS011;18701;45.588;5.288;2023-12-14T07:27:12;1.73;;;1.27;;
32200;SDS011;18701;45.588;5.288;2023-12-14T07:29:38;3.10;;;2.25;;
32200;SDS011;18701;45.588;5.288;2023-12-14T07:32:03;3.33;;;1.85;;
32200;SDS011;18701;45.588;5.288;2023-12-14T07:34:29;4.28;;;2.10;;
32200;SDS011;18701;45.588;5.288;2023-12-14T07:36:55;6.05;;;2.15;;
32200;SDS011;18701;45.588;5.288;2023-12-14T07:39:21;2.88;;;1.98;;
32200;SDS011;18701;45.588;5.288;2023-12-14T07:41:47;3.25;;;2.42;;
32200;SDS011;18701;45.588;5.288;2023-12-14T07:44:12;4.93;;;1.67;;
32200;SDS011;18701;45.588;5.288;2023-12-14T07:46:38;3.28;;;1.58;;
32200;SDS011;18701;45.588;5.288;2023-12-14T07:49:06;6.32;;;2.20;;
32200;SDS011;18701;45.588;5.288;2023-12-14T07:51:32;2.65;;;1.40;;
32200;SDS011;18701;45.588;5.288;2023-12-14T07:53:58;4.60;;;1.88;;
32200;SDS011;18701;45.588;5.288;2023-12-14T07:56:23;11.02;;;3.17;;
32200;SDS011;18701;45.588;5.288;2023-12-14T07:58:52;2.50;;;1.80;;
32200;SDS011;18701;45.588;5.288;2023-12-14T08:01:18;4.05;;;1.80;;
32200;SDS011;18701;45.588;5.288;2023-12-14T08:03:45;5.18;;;1.80;;
32200;SDS011;18701;45.588;5.288;2023-12-14T08:06:11;3.47;;;1.40;;
32200;SDS011;18701;45.588;5.288;2023-12-14T08:08:37;6.47;;;1.58;;
32200;SDS011;18701;45.588;5.288;2023-12-14T08:11:03;1.85;;;1.02;;
32200;SDS011;18701;45.588;5.288;2023-12-14T08:13:30;3.10;;;1.35;;
32200;SDS011;18701;45.588;5.288;2023-12-14T08:15:55;5.32;;;1.48;;
32200;SDS011;18701;45.588;5.288;2023-12-14T08:18:21;2.97;;;1.58;;
32200;SDS011;18701;45.588;5.288;2023-12-14T08:20:47;4.75;;;1.70;;
32200;SDS011;18701;45.588;5.288;2023-12-14T08:23:12;4.05;;;2.15;;
32200;SDS011;18701;45.588;5.288;2023-12-14T08:25:38;3.35;;;0.93;;
32200;SDS011;18701;45.588;5.288;2023-12-14T08:28:04;2.85;;;1.52;;
32200;SDS011;18701;45.588;5.288;2023-12-14T08:30:30;4.22;;;1.55;;
32200;SDS011;18701;45.588;5.288;2023-12-14T08:32:55;6.07;;;1.35;;
32200;SDS011;18701;45.588;5.288;2023-12-14T08:35:21;4.80;;;1.05;;
32200;SDS011;18701;45.588;5.288;2023-12-14T08:37:46;4.18;;;1.40;;
32200;SDS011;18701;45.588;5.288;2023-12-14T08:40:12;1.98;;;1.30;;
32200;SDS011;18701;45.588;5.288;2023-12-14T08:42:38;3.75;;;1.58;;
32200;SDS011;18701;45.588;5.288;2023-12-14T08:45:03;2.25;;;1.45;;
32200;SDS011;18701;45.588;5.288;2023-12-14T08:47:29;3.63;;;1.38;;
32200;SDS011;18701;45.588;5.288;2023-12-14T08:49:55;1.73;;;1.50;;
32200;SDS011;18701;45.588;5.288;2023-12-14T08:52:21;5.65;;;1.60;;
32200;SDS011;18701;45.588;5.288;2023-12-14T08:54:46;3.67;;;1.45;;
32200;SDS011;18701;45.588;5.288;2023-12-14T08:57:12;4.00;;;1.77;;
32200;SDS011;18701;45.588;5.288;2023-12-14T08:59:38;3.97;;;1.58;;
32200;SDS011;18701;45.588;5.288;2023-12-14T09:02:04;3.13;;;1.67;;
32200;SDS011;18701;45.588;5.288;2023-12-14T09:04:29;4.07;;;1.52;;
32200;SDS011;18701;45.588;5.288;2023-12-14T09:06:55;5.10;;;2.17;;
32200;SDS011;18701;45.588;5.288;2023-12-14T09:09:21;11.93;;;3.47;;
32200;SDS011;18701;45.588;5.288;2023-12-14T09:11:46;5.30;;;1.88;;
32200;SDS011;18701;45.588;5.288;2023-12-14T09:14:12;3.22;;;2.20;;
32200;SDS011;18701;45.588;5.288;2023-12-14T09:16:37;2.60;;;1.50;;
32200;SDS011;18701;45.588;5.288;2023-12-14T09:19:03;4.55;;;1.33;;
32200;SDS011;18701;45.588;5.288;2023-12-14T09:21:29;4.40;;;1.38;;
32200;SDS011;18701;45.588;5.288;2023-12-14T09:23:55;1.92;;;1.05;;
32200;SDS011;18701;45.588;5.288;2023-12-14T09:26:20;5.40;;;1.92;;
32200;SDS011;18701;45.588;5.288;2023-12-14T09:28:46;3.15;;;1.42;;
32200;SDS011;18701;45.588;5.288;2023-12-14T09:31:12;3.95;;;2.03;;
32200;SDS011;18701;45.588;5.288;2023-12-14T09:33:37;3.65;;;0.80;;
32200;SDS011;18701;45.588;5.288;2023-12-14T09:36:03;1.55;;;0.70;;
32200;SDS011;18701;45.588;5.288;2023-12-14T09:38:29;3.22;;;0.70;;
32200;SDS011;18701;45.588;5.288;2023-12-14T09:40:55;4.68;;;0.95;;
32200;SDS011;18701;45.588;5.288;2023-12-14T09:43:21;3.15;;;0.55;;
32200;SDS011;18701;45.588;5.288;2023-12-14T09:45:48;2.05;;;0.70;;
32200;SDS011;18701;45.588;5.288;2023-12-14T09:48:15;1.67;;;0.80;;
32200;SDS011;18701;45.588;5.288;2023-12-14T09:50:41;4.65;;;0.80;;
32200;SDS011;18701;45.588;5.288;2023-12-14T09:53:07;1.90;;;0.70;;
32200;SDS011;18701;45.588;5.288;2023-12-14T09:55:33;1.15;;;0.70;;
32200;SDS011;18701;45.588;5.288;2023-12-14T09:57:59;2.55;;;0.80;;
32200;SDS011;18701;45.588;5.288;2023-12-14T10:00:34;1.50;;;0.70;;
32200;SDS011;18701;45.588;5.288;2023-12-14T10:05:49;6.32;;;0.68;;
32200;SDS011;18701;45.588;5.288;2023-12-14T10:08:15;3.53;;;1.00;;
32200;SDS011;18701;45.588;5.288;2023-12-14T10:10:42;4.85;;;1.05;;
32200;SDS011;18701;45.588;5.288;2023-12-14T10:13:08;2.90;;;0.80;;
32200;SDS011;18701;45.588;5.288;2023-12-14T10:16:07;2.28;;;1.25;;
32200;SDS011;18701;45.588;5.288;2023-12-14T10:18:26;3.42;;;0.98;;
32200;SDS011;18701;45.588;5.288;2023-12-14T10:20:52;6.05;;;1.23;;
32200;SDS011;18701;45.588;5.288;2023-12-14T10:23:18;6.95;;;1.58;;
32200;SDS011;18701;45.588;5.288;2023-12-14T10:25:44;12.65;;;4.03;;
32200;SDS011;18701;45.588;5.288;2023-12-14T10:28:13;15.88;;;3.65;;
32200;SDS011;18701;45.588;5.288;2023-12-14T10:30:39;14.93;;;5.85;;
32200;SDS011;18701;45.588;5.288;2023-12-14T10:33:06;7.30;;;2.40;;
32200;SDS011;18701;45.588;5.288;2023-12-14T10:35:31;6.07;;;3.08;;
32200;SDS011;18701;45.588;5.288;2023-12-14T10:37:58;10.38;;;4.60;;
32200;SDS011;18701;45.588;5.288;2023-12-14T10:40:29;2.15;;;1.20;;
32200;SDS011;18701;45.588;5.288;2023-12-14T10:42:55;7.30;;;3.08;;
32200;SDS011;18701;45.588;5.288;2023-12-14T10:45:25;10.65;;;4.30;;
32200;SDS011;18701;45.588;5.288;2023-12-14T10:47:54;4.70;;;1.63;;
32200;SDS011;18701;45.588;5.288;2023-12-14T10:50:21;2.80;;;1.73;;
32200;SDS011;18701;45.588;5.288;2023-12-14T10:52:47;2.20;;;1.00;;
32200;SDS011;18701;45.588;5.288;2023-12-14T10:55:27;6.47;;;1.30;;
32200;SDS011;18701;45.588;5.288;2023-12-14T11:00:23;3.35;;;1.33;;
32200;SDS011;18701;45.588;5.288;2023-12-14T11:02:49;2.75;;;1.63;;
32200;SDS011;18701;45.588;5.288;2023-12-14T11:05:17;1.83;;;0.60;;
32200;SDS011;18701;45.588;5.288;2023-12-14T11:07:49;4.10;;;0.93;;
32200;SDS011;18701;45.588;5.288;2023-12-14T11:10:22;5.20;;;1.88;;
32200;SDS011;18701;45.588;5.288;2023-12-14T11:15:29;5.35;;;2.30;;
32200;SDS011;18701;45.588;5.288;2023-12-14T11:20:55;2.17;;;1.33;;
32200;SDS011;18701;45.588;5.288;2023-12-14T11:28:28;2.38;;;0.50;;
32200;SDS011;18701;45.588;5.288;2023-12-14T11:30:58;0.82;;;0.40;;
32200;SDS011;18701;45.588;5.288;2023-12-14T11:33:25;1.23;;;0.38;;
32200;SDS011;18701;45.588;5.288;2023-12-14T11:35:53;0.40;;;0.20;;
32200;SDS011;18701;45.588;5.288;2023-12-14T11:38:19;0.85;;;0.30;;
32200;SDS011;18701;45.588;5.288;2023-12-14T11:40:46;1.67;;;0.60;;
32200;SDS011;18701;45.588;5.288;2023-12-14T11:43:14;5.45;;;0.40;;
32200;SDS011;18701;45.588;5.288;2023-12-14T11:45:40;0.77;;;0.30;;
32200;SDS011;18701;45.588;5.288;2023-12-14T11:48:07;1.33;;;0.40;;
32200;SDS011;18701;45.588;5.288;2023-12-14T11:50:35;0.80;;;0.38;;
32200;SDS011;18701;45.588;5.288;2023-12-14T11:53:02;1.63;;;0.40;;
32200;SDS011;18701;45.588;5.288;2023-12-14T11:55:29;0.60;;;0.20;;
32200;SDS011;18701;45.588;5.288;2023-12-14T11:57:56;0.90;;;0.20;;
32200;SDS011;18701;45.588;5.288;2023-12-14T12:00:26;2.80;;;0.30;;
32200;SDS011;18701;45.588;5.288;2023-12-14T12:03:09;0.63;;;0.20;;
32200;SDS011;18701;45.588;5.288;2023-12-14T12:05:42;0.98;;;0.20;;
32200;SDS011;18701;45.588;5.288;2023-12-14T12:08:09;1.25;;;0.20;;
32200;SDS011;18701;45.588;5.288;2023-12-14T12:10:39;2.30;;;0.30;;
32200;SDS011;18701;45.588;5.288;2023-12-14T12:13:08;0.95;;;0.30;;
32200;SDS011;18701;45.588;5.288;2023-12-14T12:15:37;1.50;;;0.35;;
32200;SDS011;18701;45.588;5.288;2023-12-14T12:18:06;1.17;;;0.40;;
32200;SDS011;18701;45.588;5.288;2023-12-14T12:20:36;4.78;;;0.30;;
32200;SDS011;18701;45.588;5.288;2023-12-14T12:23:01;1.90;;;0.40;;
32200;SDS011;18701;45.588;5.288;2023-12-14T12:25:28;1.05;;;0.50;;
32200;SDS011;18701;45.588;5.288;2023-12-14T12:27:54;4.85;;;0.60;;
32200;SDS011;18701;45.588;5.288;2023-12-14T12:30:20;1.02;;;0.47;;
32200;SDS011;18701;45.588;5.288;2023-12-14T12:32:46;1.88;;;0.80;;
32200;SDS011;18701;45.588;5.288;2023-12-14T12:35:12;5.65;;;0.75;;
32200;SDS011;18701;45.588;5.288;2023-12-14T12:37:38;1.52;;;0.50;;
32200;SDS011;18701;45.588;5.288;2023-12-14T12:40:04;1.73;;;1.00;;
32200;SDS011;18701;45.588;5.288;2023-12-14T12:42:31;1.35;;;0.77;;
32200;SDS011;18701;45.588;5.288;2023-12-14T12:44:57;0.70;;;0.40;;
32200;SDS011;18701;45.588;5.288;2023-12-14T12:47:23;0.98;;;0.63;;
32200;SDS011;18701;45.588;5.288;2023-12-14T12:49:48;3.38;;;0.73;;
32200;SDS011;18701;45.588;5.288;2023-12-14T12:52:14;1.67;;;0.82;;
32200;SDS011;18701;45.588;5.288;2023-12-14T12:54:40;3.10;;;0.93;;
32200;SDS011;18701;45.588;5.288;2023-12-14T12:57:06;1.45;;;0.70;;
32200;SDS011;18701;45.588;5.288;2023-12-14T12:59:31;2.17;;;0.88;;
32200;SDS011;18701;45.588;5.288;2023-12-14T13:01:58;1.73;;;0.90;;
32200;SDS011;18701;45.588;5.288;2023-12-14T13:04:24;1.08;;;0.80;;
32200;SDS011;18701;45.588;5.288;2023-12-14T13:06:51;1.88;;;0.85;;
32200;SDS011;18701;45.588;5.288;2023-12-14T13:09:17;3.88;;;0.88;;
32200;SDS011;18701;45.588;5.288;2023-12-14T13:11:44;2.05;;;1.00;;
32200;SDS011;18701;45.588;5.288;2023-12-14T13:14:10;3.63;;;0.90;;
32200;SDS011;18701;45.588;5.288;2023-12-14T13:16:36;2.45;;;0.90;;
32200;SDS011;18701;45.588;5.288;2023-12-14T13:19:03;2.30;;;0.98;;
32200;SDS011;18701;45.588;5.288;2023-12-14T13:21:29;1.65;;;0.50;;
32200;SDS011;18701;45.588;5.288;2023-12-14T13:23:55;2.60;;;1.10;;
32200;SDS011;18701;45.588;5.288;2023-12-14T13:26:23;1.40;;;0.90;;
32200;SDS011;18701;45.588;5.288;2023-12-14T13:28:50;8.35;;;1.85;;
32200;SDS011;18701;45.588;5.288;2023-12-14T13:31:16;6.70;;;2.45;;
32200;SDS011;18701;45.588;5.288;2023-12-14T13:33:42;2.75;;;0.80;;
32200;SDS011;18701;45.588;5.288;2023-12-14T13:36:07;3.58;;;1.17;;
32200;SDS011;18701;45.588;5.288;2023-12-14T13:38:34;1.95;;;1.17;;
32200;SDS011;18701;45.588;5.288;2023-12-14T13:41:01;1.58;;;0.93;;
32200;SDS011;18701;45.588;5.288;2023-12-14T13:43:28;1.30;;;1.00;;
32200;SDS011;18701;45.588;5.288;2023-12-14T13:45:54;2.65;;;0.60;;
32200;SDS011;18701;45.588;5.288;2023-12-14T13:48:23;1.15;;;0.70;;
32200;SDS011;18701;45.588;5.288;2023-12-14T13:50:49;1.67;;;0.90;;
32200;SDS011;18701;45.588;5.288;2023-12-14T13:53:15;2.67;;;0.80;;
32200;SDS011;18701;45.588;5.288;2023-12-14T13:55:41;1.20;;;0.70;;
32200;SDS011;18701;45.588;5.288;2023-12-14T13:58:06;3.60;;;1.02;;
32200;SDS011;18701;45.588;5.288;2023-12-14T14:00:32;3.15;;;1.05;;
32200;SDS011;18701;45.588;5.288;2023-12-14T14:02:59;3.42;;;1.13;;
32200;SDS011;18701;45.588;5.288;2023-12-14T14:05:25;4.13;;;1.65;;
32200;SDS011;18701;45.588;5.288;2023-12-14T14:07:51;1.55;;;1.05;;
32200;SDS011;18701;45.588;5.288;2023-12-14T14:10:18;3.83;;;1.23;;
32200;SDS011;18701;45.588;5.288;2023-12-14T14:12:44;1.48;;;1.08;;
32200;SDS011;18701;45.588;5.288;2023-12-14T14:15:12;6.45;;;1.40;;
32200;SDS011;18701;45.588;5.288;2023-12-14T14:17:38;1.88;;;1.20;;
32200;SDS011;18701;45.588;5.288;2023-12-14T14:20:04;2.05;;;1.30;;
32200;SDS011;18701;45.588;5.288;2023-12-14T14:22:30;2.10;;;1.50;;
32200;SDS011;18701;45.588;5.288;2023-12-14T14:24:56;4.30;;;1.65;;
32200;SDS011;18701;45.588;5.288;2023-12-14T14:27:22;4.15;;;1.48;;
32200;SDS011;18701;45.588;5.288;2023-12-14T14:29:49;2.45;;;1.48;;
32200;SDS011;18701;45.588;5.288;2023-12-14T14:32:15;3.45;;;1.20;;
32200;SDS011;18701;45.588;5.288;2023-12-14T14:34:41;5.13;;;1.67;;
32200;SDS011;18701;45.588;5.288;2023-12-14T14:37:07;1.95;;;1.38;;
32200;SDS011;18701;45.588;5.288;2023-12-14T14:39:33;2.80;;;1.30;;
32200;SDS011;18701;45.588;5.288;2023-12-14T14:41:58;3.65;;;1.35;;
32200;SDS011;18701;45.588;5.288;2023-12-14T14:44:24;4.60;;;1.92;;
32200;SDS011;18701;45.588;5.288;2023-12-14T14:46:51;2.83;;;1.60;;
32200;SDS011;18701;45.588;5.288;2023-12-14T14:49:17;4.68;;;2.17;;
32200;SDS011;18701;45.588;5.288;2023-12-14T14:51:43;4.43;;;2.17;;
32200;SDS011;18701;45.588;5.288;2023-12-14T14:54:08;1.95;;;1.10;;
32200;SDS011;18701;45.588;5.288;2023-12-14T14:56:34;4.47;;;1.15;;
32200;SDS011;18701;45.588;5.288;2023-12-14T14:59:00;1.48;;;0.70;;